Amahai Airport


Codes: WAPA/AHI
Name: Amahai Airport
City: Amahai-Seram Island
Country: Indonesia
Elevation: 29 ft.
Wikipedia:

Photos at Amahai Airport


   Photos courtesy of SpottingLog. You can add your own sightings and photos by signing up for a free trial today.



No photos found.

Weather at Amahai Airport


Time (UTC)DescriptionTempratureWindCloud coverageVisibilityPressureHumidity
18-Apr-2024 00:00Overcast Clouds28°C2 mph, NW89%10000m1008hPa75%
18-Apr-2024 03:00Broken Clouds30°C7 mph, NW81%10000m1007hPa67%
18-Apr-2024 06:00Light Rain30°C7 mph, SW82%10000m1005hPa72%
18-Apr-2024 09:00Moderate Rain29°C4 mph, SW63%10000m1007hPa77%
18-Apr-2024 12:00Light Rain27°C2 mph, W81%10000m1009hPa82%
18-Apr-2024 15:00Moderate Rain26°C4 mph, N99%10000m1009hPa87%
18-Apr-2024 18:00Light Rain27°C4 mph, N99%10000m1007hPa83%
18-Apr-2024 21:00Overcast Clouds27°C4 mph, N99%10000m1007hPa83%
19-Apr-2024 00:00Overcast Clouds28°C2 mph, N97%10000m1009hPa76%
19-Apr-2024 03:00Few Clouds30°C7 mph, S24%10000m1008hPa67%
19-Apr-2024 06:00Light Rain29°C4 mph, S29%10000m1006hPa72%
19-Apr-2024 09:00Moderate Rain28°C4 mph, SE73%10000m1007hPa80%
19-Apr-2024 12:00Light Rain27°C0 mph, S86%10000m1010hPa81%
19-Apr-2024 15:00Light Rain27°C2 mph, N98%10000m1010hPa84%
19-Apr-2024 18:00Light Rain26°C2 mph, N79%10000m1008hPa84%
19-Apr-2024 21:00Overcast Clouds26°C2 mph, N94%10000m1009hPa84%
20-Apr-2024 00:00Light Rain28°C2 mph, N91%10000m1010hPa79%
20-Apr-2024 03:00Scattered Clouds29°C7 mph, S43%10000m1008hPa73%
20-Apr-2024 06:00Scattered Clouds29°C7 mph, S38%10000m1006hPa72%
20-Apr-2024 09:00Broken Clouds28°C4 mph, SE61%10000m1007hPa76%
20-Apr-2024 12:00Broken Clouds28°C4 mph, E78%10000m1009hPa79%
20-Apr-2024 15:00Overcast Clouds27°C4 mph, NE100%10000m1009hPa81%
20-Apr-2024 18:00Overcast Clouds27°C4 mph, N100%10000m1008hPa85%
20-Apr-2024 21:00Overcast Clouds26°C4 mph, N91%10000m1008hPa85%
21-Apr-2024 00:00Overcast Clouds28°C2 mph, NE87%10000m1010hPa76%
21-Apr-2024 03:00Light Rain29°C7 mph, S57%10000m1008hPa74%
21-Apr-2024 06:00Light Rain29°C7 mph, SE58%10000m1006hPa74%
21-Apr-2024 09:00Light Rain28°C4 mph, SE61%10000m1006hPa80%
21-Apr-2024 12:00Moderate Rain27°C2 mph, E73%10000m1008hPa83%
21-Apr-2024 15:00Light Rain27°C2 mph, NE73%10000m1008hPa86%
21-Apr-2024 18:00Light Rain26°C4 mph, N64%10000m1007hPa84%
21-Apr-2024 21:00Scattered Clouds26°C2 mph, N27%10000m1007hPa84%
22-Apr-2024 00:00Scattered Clouds28°C2 mph, N37%10000m1009hPa79%
22-Apr-2024 03:00Broken Clouds29°C7 mph, S59%10000m1007hPa73%
22-Apr-2024 06:00Light Rain29°C7 mph, S41%10000m1004hPa73%
22-Apr-2024 09:00Light Rain28°C2 mph, SW45%10000m1006hPa78%
22-Apr-2024 12:00Light Rain27°C0 mph, NW69%10000m1008hPa81%
22-Apr-2024 15:00Light Rain27°C2 mph, N67%10000m1008hPa83%
22-Apr-2024 18:00Light Rain27°C2 mph, N71%10000m1007hPa84%
22-Apr-2024 21:00Overcast Clouds26°C2 mph, N90%10000m1007hPa84%